Time;durP1;ratioP1;P1;durP2;ratioP2;P2;SDS_P1;SDS_P2;PMS_P1;PMS_P2;Temp;Humidity;BMP_temperature;BMP_pressure;BME280_temperature;BME280_humidity;BME280_pressure;Samples;Min_cycle;Max_cycle;Signal;HPM_P1;HPM_P2
2022/07/13 00:02:21;;;;;;;0.73;0.73;;;;;;;;;;5099928;28;20754;-79
2022/07/13 00:04:49;;;;;;;0.70;0.70;;;;;;;;;;5078766;28;20296;-80
2022/07/13 00:07:18;;;;;;;0.70;0.70;;;;;;;;;;5080497;28;20256;-79
2022/07/13 00:09:45;;;;;;;0.88;0.88;;;;;;;;;;5081149;28;20292;-80
2022/07/13 00:12:13;;;;;;;0.90;0.90;;;;;;;;;;5080512;28;20225;-80
2022/07/13 00:14:40;;;;;;;0.65;0.65;;;;;;;;;;5080762;28;20223;-78
2022/07/13 00:17:08;;;;;;;0.60;0.60;;;;;;;;;;5079870;28;20256;-80
2022/07/13 00:19:35;;;;;;;0.90;0.90;;;;;;;;;;5079541;28;20224;-79
2022/07/13 00:22:03;;;;;;;0.77;0.77;;;;;;;;;;5081824;28;20228;-79
2022/07/13 00:24:32;;;;;;;0.70;0.70;;;;;;;;;;5081631;28;20224;-80
2022/07/13 00:26:59;;;;;;;0.70;0.70;;;;;;;;;;5081933;28;20312;-80
2022/07/13 00:29:27;;;;;;;0.63;0.63;;;;;;;;;;5081180;28;20233;-79
2022/07/13 00:31:54;;;;;;;1.00;1.00;;;;;;;;;;5078684;28;20307;-79
2022/07/13 00:34:22;;;;;;;0.68;0.68;;;;;;;;;;5080694;28;20284;-80
2022/07/13 00:36:49;;;;;;;0.70;0.70;;;;;;;;;;5080661;28;20271;-80
2022/07/13 00:39:17;;;;;;;0.75;0.75;;;;;;;;;;5081191;28;20284;-80
2022/07/13 00:41:49;;;;;;;0.80;0.80;;;;;;;;;;5079820;28;20225;-81
2022/07/13 00:44:18;;;;;;;0.70;0.70;;;;;;;;;;5081394;28;20260;-81
2022/07/13 00:46:54;;;;;;;0.75;0.75;;;;;;;;;;5080341;28;20252;-79
2022/07/13 00:49:22;;;;;;;0.70;0.70;;;;;;;;;;5099918;28;20302;-79
2022/07/13 00:51:50;;;;;;;0.60;0.60;;;;;;;;;;5099373;28;20590;-78
2022/07/13 00:54:28;;;;;;;0.60;0.60;;;;;;;;;;5097774;28;20291;-79
2022/07/13 00:56:58;;;;;;;0.93;0.93;;;;;;;;;;5098386;28;20216;-79
2022/07/13 00:59:26;;;;;;;0.55;0.55;;;;;;;;;;5099250;28;20291;-79
2022/07/13 01:01:54;;;;;;;0.80;0.80;;;;;;;;;;5099941;28;20287;-79
2022/07/13 01:04:24;;;;;;;0.70;0.70;;;;;;;;;;5085750;28;20200;-79
2022/07/13 01:06:53;;;;;;;0.95;0.90;;;;;;;;;;5079213;28;20232;-78
2022/07/13 01:09:21;;;;;;;0.90;0.90;;;;;;;;;;5077919;28;20200;-80
2022/07/13 01:11:49;;;;;;;0.85;0.85;;;;;;;;;;5080239;28;20640;-79
2022/07/13 01:14:18;;;;;;;0.80;0.80;;;;;;;;;;5080142;28;20677;-79
2022/07/13 01:16:46;;;;;;;0.80;0.80;;;;;;;;;;5081084;28;20303;-79
2022/07/13 01:19:15;;;;;;;0.90;0.90;;;;;;;;;;5099373;28;20239;-79
2022/07/13 01:21:45;;;;;;;0.80;0.80;;;;;;;;;;5100509;28;20279;-80
2022/07/13 01:24:14;;;;;;;1.00;1.00;;;;;;;;;;5089520;28;20297;-80
2022/07/13 01:26:42;;;;;;;0.90;0.90;;;;;;;;;;5080876;28;20312;-80
2022/07/13 01:29:10;;;;;;;1.20;1.10;;;;;;;;;;5080231;28;20237;-80
2022/07/13 01:31:39;;;;;;;0.90;0.90;;;;;;;;;;5084812;28;20196;-79
2022/07/13 01:34:08;;;;;;;1.27;0.98;;;;;;;;;;5079546;28;20287;-78
2022/07/13 01:36:37;;;;;;;0.90;0.90;;;;;;;;;;5080874;28;20217;-80
2022/07/13 01:39:05;;;;;;;0.88;0.88;;;;;;;;;;5081179;28;20645;-80
2022/07/13 01:41:34;;;;;;;0.80;0.80;;;;;;;;;;5084274;28;20192;-79
2022/07/13 01:44:02;;;;;;;0.88;0.88;;;;;;;;;;5100493;28;20741;-80
2022/07/13 01:46:30;;;;;;;0.80;0.80;;;;;;;;;;5100459;28;20259;-80
2022/07/13 01:48:58;;;;;;;0.70;0.70;;;;;;;;;;5084419;28;20244;-80
2022/07/13 01:51:26;;;;;;;0.85;0.85;;;;;;;;;;5079932;28;20223;-79
2022/07/13 01:53:53;;;;;;;0.73;0.73;;;;;;;;;;5080420;28;20303;-79
2022/07/13 01:56:21;;;;;;;0.77;0.77;;;;;;;;;;5078214;28;20753;-78
2022/07/13 01:58:50;;;;;;;0.82;0.82;;;;;;;;;;5079830;28;20228;-80
2022/07/13 02:01:17;;;;;;;0.63;0.63;;;;;;;;;;5079875;28;20232;-79
2022/07/13 02:03:45;;;;;;;0.68;0.68;;;;;;;;;;5076339;28;20233;-80
2022/07/13 02:06:13;;;;;;;0.75;0.75;;;;;;;;;;5076873;28;20271;-79
2022/07/13 02:08:40;;;;;;;0.80;0.80;;;;;;;;;;5076913;28;20288;-80
2022/07/13 02:11:08;;;;;;;0.70;0.70;;;;;;;;;;5078983;28;20288;-79
2022/07/13 02:13:35;;;;;;;0.73;0.73;;;;;;;;;;5076606;28;20308;-78
2022/07/13 02:16:05;;;;;;;0.88;0.88;;;;;;;;;;5077292;28;20247;-80
2022/07/13 02:18:32;;;;;;;0.90;0.90;;;;;;;;;;5079350;28;20420;-80
2022/07/13 02:21:00;;;;;;;0.90;0.90;;;;;;;;;;5080142;28;20232;-80
2022/07/13 02:23:27;;;;;;;0.95;0.95;;;;;;;;;;5080270;28;20220;-80
2022/07/13 02:25:55;;;;;;;0.85;0.85;;;;;;;;;;5076499;28;20312;-78
2022/07/13 02:28:23;;;;;;;0.90;0.90;;;;;;;;;;5076833;28;20296;-79
2022/07/13 02:30:50;;;;;;;1.00;1.00;;;;;;;;;;5076122;28;20243;-79
2022/07/13 02:33:19;;;;;;;0.80;0.80;;;;;;;;;;5078444;28;20275;-80
2022/07/13 02:35:47;;;;;;;0.70;0.70;;;;;;;;;;5079778;28;20259;-81
2022/07/13 02:38:14;;;;;;;0.70;0.70;;;;;;;;;;5079787;28;20264;-79
2022/07/13 02:40:42;;;;;;;1.73;1.50;;;;;;;;;;5079568;28;20262;-79
2022/07/13 02:43:09;;;;;;;1.17;1.17;;;;;;;;;;5078873;28;20256;-80
2022/07/13 02:45:37;;;;;;;1.17;1.17;;;;;;;;;;5079366;28;20271;-80
2022/07/13 02:48:05;;;;;;;1.15;1.05;;;;;;;;;;5078781;28;20204;-78
2022/07/13 02:50:34;;;;;;;0.77;0.77;;;;;;;;;;5076651;28;20283;-78
2022/07/13 02:53:01;;;;;;;0.90;0.90;;;;;;;;;;5093034;28;20256;-79
2022/07/13 02:55:29;;;;;;;0.70;0.70;;;;;;;;;;5099004;28;20253;-79
2022/07/13 02:57:57;;;;;;;0.70;0.70;;;;;;;;;;5099192;28;20287;-80
2022/07/13 03:00:24;;;;;;;0.80;0.80;;;;;;;;;;5099172;28;20204;-80
2022/07/13 03:02:51;;;;;;;1.00;0.90;;;;;;;;;;5084741;28;20232;-80
2022/07/13 03:05:20;;;;;;;0.70;0.70;;;;;;;;;;5078703;28;20315;-80
2022/07/13 03:07:49;;;;;;;0.90;0.90;;;;;;;;;;5078697;28;20260;-79
2022/07/13 03:10:16;;;;;;;0.90;0.90;;;;;;;;;;5078978;28;20658;-79
2022/07/13 03:12:44;;;;;;;0.80;0.80;;;;;;;;;;5075734;28;20264;-78
2022/07/13 03:15:12;;;;;;;1.05;0.95;;;;;;;;;;5075953;28;20287;-78
2022/07/13 03:17:40;;;;;;;0.90;0.90;;;;;;;;;;5077987;28;20235;-79
2022/07/13 03:20:10;;;;;;;0.60;0.60;;;;;;;;;;5079309;28;20201;-79
2022/07/13 03:22:37;;;;;;;1.08;1.08;;;;;;;;;;5078228;28;20235;-80
2022/07/13 03:25:08;;;;;;;1.23;1.17;;;;;;;;;;5076739;28;20667;-80
2022/07/13 03:27:36;;;;;;;1.50;1.40;;;;;;;;;;5078227;28;20247;-81
2022/07/13 03:30:04;;;;;;;0.90;0.90;;;;;;;;;;5078739;28;20233;-79
2022/07/13 03:32:31;;;;;;;1.02;1.00;;;;;;;;;;5085653;28;20269;-79
2022/07/13 03:34:59;;;;;;;1.38;1.10;;;;;;;;;;5099092;28;20231;-80
2022/07/13 03:37:28;;;;;;;1.20;1.20;;;;;;;;;;5098905;28;20204;-80
2022/07/13 03:39:55;;;;;;;1.13;1.13;;;;;;;;;;5099261;28;20648;-79
2022/07/13 03:42:24;;;;;;;1.10;1.10;;;;;;;;;;5097912;28;20204;-80
2022/07/13 03:44:52;;;;;;;1.20;1.20;;;;;;;;;;5098524;28;20196;-79
2022/07/13 03:47:20;;;;;;;2.10;1.30;;;;;;;;;;5111528;22;20633;-83
2022/07/13 03:49:47;;;;;;;1.50;1.40;;;;;;;;;;5100092;28;20200;-83
2022/07/13 03:52:15;;;;;;;1.15;1.10;;;;;;;;;;5099997;28;20671;-82
2022/07/13 03:54:42;;;;;;;1.40;1.30;;;;;;;;;;5101249;28;20653;-82
2022/07/13 03:57:10;;;;;;;0.90;0.90;;;;;;;;;;5100079;28;20216;-82
2022/07/13 03:59:39;;;;;;;0.80;0.80;;;;;;;;;;5100825;28;20196;-81
2022/07/13 04:02:06;;;;;;;1.10;1.10;;;;;;;;;;5087061;28;20201;-82
2022/07/13 04:04:34;;;;;;;1.10;1.10;;;;;;;;;;5081132;28;20227;-81
2022/07/13 04:07:01;;;;;;;1.05;1.05;;;;;;;;;;5080701;28;20244;-81
2022/07/13 04:09:29;;;;;;;1.13;1.10;;;;;;;;;;5081509;28;20204;-80
2022/07/13 04:11:57;;;;;;;1.10;1.10;;;;;;;;;;5090434;28;20200;-81
2022/07/13 04:14:24;;;;;;;1.05;1.05;;;;;;;;;;5100449;28;20315;-83
2022/07/13 04:16:53;;;;;;;1.08;1.08;;;;;;;;;;5101108;28;20256;-83
2022/07/13 04:19:21;;;;;;;1.00;1.00;;;;;;;;;;5099748;28;20327;-81
2022/07/13 04:21:48;;;;;;;0.90;0.90;;;;;;;;;;5090469;28;20232;-82
2022/07/13 04:24:16;;;;;;;1.10;1.10;;;;;;;;;;5081237;28;20197;-82
2022/07/13 04:26:43;;;;;;;0.90;0.90;;;;;;;;;;5080739;28;20225;-81
2022/07/13 04:29:11;;;;;;;1.00;1.00;;;;;;;;;;5081024;28;20205;-81
2022/07/13 04:31:38;;;;;;;1.92;1.40;;;;;;;;;;5089696;28;20578;-81
2022/07/13 04:34:07;;;;;;;1.40;1.30;;;;;;;;;;5101272;28;20220;-80
2022/07/13 04:36:35;;;;;;;1.70;1.17;;;;;;;;;;5101462;28;20306;-83
2022/07/13 04:39:02;;;;;;;1.40;1.30;;;;;;;;;;5101267;28;20250;-82
2022/07/13 04:41:30;;;;;;;1.00;1.00;;;;;;;;;;5096388;28;20283;-82
2022/07/13 04:43:57;;;;;;;0.93;0.93;;;;;;;;;;5084231;28;20708;-82
2022/07/13 04:46:25;;;;;;;0.65;0.65;;;;;;;;;;5083650;28;20263;-83
2022/07/13 04:48:53;;;;;;;0.80;0.80;;;;;;;;;;5083260;28;20582;-82
2022/07/13 04:51:22;;;;;;;1.15;1.05;;;;;;;;;;5088350;28;20227;-81
2022/07/13 04:53:49;;;;;;;0.98;0.98;;;;;;;;;;5103041;28;20220;-83
2022/07/13 04:56:17;;;;;;;1.27;1.05;;;;;;;;;;5103629;28;20315;-84
2022/07/13 04:58:44;;;;;;;1.05;1.05;;;;;;;;;;5104433;28;20195;-82
2022/07/13 05:01:12;;;;;;;1.15;1.00;;;;;;;;;;5099964;28;20334;-83
2022/07/13 05:03:39;;;;;;;1.45;1.35;;;;;;;;;;5080182;28;20201;-82
2022/07/13 05:06:07;;;;;;;1.70;1.60;;;;;;;;;;5081959;28;20358;-84
2022/07/13 05:08:36;;;;;;;1.30;1.20;;;;;;;;;;5082938;28;20657;-83
2022/07/13 05:11:04;;;;;;;1.23;1.23;;;;;;;;;;5082753;28;20240;-84
2022/07/13 05:13:31;;;;;;;0.95;0.95;;;;;;;;;;5080276;28;20196;-83
2022/07/13 05:15:59;;;;;;;1.40;1.30;;;;;;;;;;5079447;28;20247;-83
2022/07/13 05:18:26;;;;;;;1.15;1.15;;;;;;;;;;5078532;28;20645;-81
2022/07/13 05:20:54;;;;;;;1.40;1.30;;;;;;;;;;5079185;28;20250;-82
2022/07/13 05:23:21;;;;;;;1.95;1.20;;;;;;;;;;5098583;28;20204;-84
2022/07/13 05:25:50;;;;;;;1.00;1.00;;;;;;;;;;5099000;28;20259;-84
2022/07/13 05:28:18;;;;;;;1.27;1.00;;;;;;;;;;5100022;28;20675;-84
2022/07/13 05:30:45;;;;;;;1.00;1.00;;;;;;;;;;5100239;28;20231;-83
2022/07/13 05:33:14;;;;;;;1.00;1.00;;;;;;;;;;5080387;28;20599;-83
2022/07/13 05:35:42;;;;;;;0.80;0.80;;;;;;;;;;5081578;28;20708;-84
2022/07/13 05:38:09;;;;;;;1.05;1.05;;;;;;;;;;5101653;28;20258;-84
2022/07/13 05:40:37;;;;;;;1.20;1.15;;;;;;;;;;5101600;28;20211;-83
2022/07/13 05:43:06;;;;;;;1.42;1.35;;;;;;;;;;5100433;28;20204;-84
2022/07/13 05:45:33;;;;;;;1.08;1.08;;;;;;;;;;5087706;28;20236;-82
2022/07/13 05:48:01;;;;;;;1.30;1.20;;;;;;;;;;5087281;28;20587;-83
2022/07/13 05:50:28;;;;;;;1.55;1.45;;;;;;;;;;5081274;28;20243;-83
2022/07/13 05:52:56;;;;;;;1.42;1.13;;;;;;;;;;5079396;28;20196;-85
2022/07/13 05:55:24;;;;;;;1.15;1.10;;;;;;;;;;5080036;28;20652;-83
2022/07/13 05:57:51;;;;;;;1.10;1.10;;;;;;;;;;5079492;28;20196;-84
2022/07/13 06:00:20;;;;;;;1.13;1.13;;;;;;;;;;5078666;28;20205;-85
2022/07/13 06:02:48;;;;;;;1.38;1.30;;;;;;;;;;5079309;28;20201;-83
2022/07/13 06:05:15;;;;;;;1.45;1.35;;;;;;;;;;5080026;28;20197;-81
2022/07/13 06:07:43;;;;;;;1.70;1.15;;;;;;;;;;5096612;28;20300;-84
2022/07/13 06:10:11;;;;;;;1.17;1.13;;;;;;;;;;5100018;28;20235;-85
2022/07/13 06:12:39;;;;;;;1.05;1.05;;;;;;;;;;5099362;28;20611;-84
2022/07/13 06:15:08;;;;;;;1.17;1.17;;;;;;;;;;5086385;28;20626;-84
2022/07/13 06:17:37;;;;;;;1.27;1.27;;;;;;;;;;5088585;28;20602;-82
2022/07/13 06:20:06;;;;;;;1.67;1.23;;;;;;;;;;5078818;28;20288;-84
2022/07/13 06:22:34;;;;;;;1.40;1.30;;;;;;;;;;5078149;28;20236;-83
2022/07/13 06:25:03;;;;;;;1.33;1.23;;;;;;;;;;5078773;28;20204;-84
2022/07/13 06:27:30;;;;;;;1.08;1.02;;;;;;;;;;5092685;28;20627;-84
2022/07/13 06:29:58;;;;;;;1.40;1.30;;;;;;;;;;5098407;28;20207;-82
2022/07/13 06:32:26;;;;;;;1.33;1.30;;;;;;;;;;5097906;28;20286;-84
2022/07/13 06:34:55;;;;;;;0.90;0.90;;;;;;;;;;5098526;28;20243;-84
2022/07/13 06:37:22;;;;;;;0.90;0.90;;;;;;;;;;5085193;28;20621;-84
2022/07/13 06:39:50;;;;;;;1.08;1.08;;;;;;;;;;5077954;28;20233;-85
2022/07/13 06:42:17;;;;;;;1.23;1.23;;;;;;;;;;5077179;28;20240;-84
2022/07/13 06:44:45;;;;;;;2.00;1.23;;;;;;;;;;5077299;28;20232;-85
2022/07/13 06:47:12;;;;;;;1.15;1.15;;;;;;;;;;5087956;28;20290;-82
2022/07/13 06:49:40;;;;;;;1.00;1.00;;;;;;;;;;5077486;28;20258;-84
2022/07/13 06:52:08;;;;;;;1.17;1.17;;;;;;;;;;5076749;28;20283;-85
2022/07/13 06:54:36;;;;;;;1.38;1.27;;;;;;;;;;5077710;28;20289;-85
2022/07/13 06:57:04;;;;;;;1.30;1.30;;;;;;;;;;5087201;28;20626;-83
2022/07/13 06:59:32;;;;;;;0.70;0.70;;;;;;;;;;5097573;28;20200;-84
2022/07/13 07:01:59;;;;;;;0.80;0.80;;;;;;;;;;5097120;28;20232;-85
2022/07/13 07:04:27;;;;;;;1.08;0.90;;;;;;;;;;5096456;28;20222;-83
2022/07/13 07:06:55;;;;;;;1.13;1.00;;;;;;;;;;5088613;28;20576;-82
2022/07/13 07:09:24;;;;;;;0.93;0.93;;;;;;;;;;5076426;28;20229;-84
2022/07/13 07:11:51;;;;;;;2.22;1.42;;;;;;;;;;5076083;28;20240;-84
2022/07/13 07:14:19;;;;;;;1.70;1.63;;;;;;;;;;5077325;28;20201;-82
2022/07/13 07:16:47;;;;;;;0.93;0.93;;;;;;;;;;5083345;28;20220;-84
2022/07/13 07:19:14;;;;;;;1.00;1.00;;;;;;;;;;5078328;28;20257;-84
2022/07/13 07:21:42;;;;;;;1.10;1.10;;;;;;;;;;5076509;28;20235;-84
2022/07/13 07:24:09;;;;;;;0.88;0.88;;;;;;;;;;5076909;28;20658;-82
2022/07/13 07:26:38;;;;;;;0.85;0.85;;;;;;;;;;5081701;28;20213;-84
2022/07/13 07:29:06;;;;;;;0.90;0.90;;;;;;;;;;5097660;28;20228;-83
2022/07/13 07:31:33;;;;;;;0.90;0.90;;;;;;;;;;5096624;28;20232;-83
2022/07/13 07:34:01;;;;;;;1.05;0.90;;;;;;;;;;5096944;28;20235;-83
2022/07/13 07:36:28;;;;;;;0.93;0.93;;;;;;;;;;5093354;28;20669;-82
2022/07/13 07:38:56;;;;;;;1.10;1.05;;;;;;;;;;5076880;28;20196;-83
2022/07/13 07:41:23;;;;;;;1.35;1.20;;;;;;;;;;5076870;28;20201;-85
2022/07/13 07:43:52;;;;;;;1.08;1.08;;;;;;;;;;5075912;28;20270;-85
2022/07/13 07:46:20;;;;;;;1.40;1.20;;;;;;;;;;5079769;28;20269;-83
2022/07/13 07:48:47;;;;;;;2.35;1.30;;;;;;;;;;5082026;28;20204;-85
2022/07/13 07:51:15;;;;;;;1.25;1.15;;;;;;;;;;5075985;28;20224;-84
2022/07/13 07:53:43;;;;;;;1.58;1.30;;;;;;;;;;5075175;28;20243;-84
2022/07/13 07:56:10;;;;;;;1.40;1.30;;;;;;;;;;5076379;28;20221;-85
2022/07/13 07:58:38;;;;;;;1.63;1.10;;;;;;;;;;5076133;28;20262;-83
2022/07/13 08:01:07;;;;;;;1.33;1.10;;;;;;;;;;5076702;28;20641;-84
2022/07/13 08:03:35;;;;;;;1.33;1.23;;;;;;;;;;5076697;28;20236;-85
2022/07/13 08:06:03;;;;;;;1.15;1.15;;;;;;;;;;5089679;28;20258;-83
2022/07/13 08:08:30;;;;;;;1.60;1.20;;;;;;;;;;5097927;28;20243;-84
2022/07/13 08:10:58;;;;;;;1.13;1.10;;;;;;;;;;5098162;28;20236;-84
2022/07/13 08:13:25;;;;;;;1.17;1.17;;;;;;;;;;5097258;28;20235;-84
2022/07/13 08:15:53;;;;;;;1.20;1.20;;;;;;;;;;5091495;28;20217;-84
2022/07/13 08:18:22;;;;;;;1.20;1.10;;;;;;;;;;5086068;28;20197;-85
2022/07/13 08:20:49;;;;;;;0.95;0.90;;;;;;;;;;5084756;28;20196;-84
2022/07/13 08:26:02;;;;;;;0.80;0.80;;;;;;;;;;5101993;28;20215;-85
2022/07/13 08:28:30;;;;;;;1.00;1.00;;;;;;;;;;5101984;28;20201;-84
2022/07/13 08:30:57;;;;;;;0.80;0.80;;;;;;;;;;5102582;28;20614;-82
2022/07/13 08:38:34;;;;;;;0.90;0.90;;;;;;;;;;5093443;28;20225;-84
2022/07/13 08:39:09;;;;;;;2.17;1.08;;;;;;;;;;5081727;28;20199;-84
2022/07/13 08:41:36;;;;;;;0.80;0.80;;;;;;;;;;5079559;28;20325;-83
2022/07/13 08:44:04;;;;;;;0.88;0.88;;;;;;;;;;5080044;28;20232;-84
2022/07/13 08:46:32;;;;;;;0.90;0.90;;;;;;;;;;5078367;28;20252;-83
2022/07/13 08:49:02;;;;;;;0.90;0.90;;;;;;;;;;5081178;28;20243;-84
2022/07/13 08:51:32;;;;;;;0.93;0.93;;;;;;;;;;5079111;28;20620;-82
2022/07/13 08:54:01;;;;;;;0.98;0.98;;;;;;;;;;5081030;28;20204;-82
2022/07/13 08:56:28;;;;;;;0.90;0.90;;;;;;;;;;5078683;28;20290;-85
2022/07/13 08:58:56;;;;;;;0.80;0.80;;;;;;;;;;5079216;28;20244;-82
2022/07/13 09:01:24;;;;;;;0.90;0.90;;;;;;;;;;5079927;28;20644;-82
2022/07/13 09:03:52;;;;;;;1.30;1.20;;;;;;;;;;5080414;28;20228;-84
2022/07/13 09:06:47;;;;;;;0.73;0.73;;;;;;;;;;5080054;28;20228;-82
2022/07/13 09:09:33;;;;;;;0.90;0.90;;;;;;;;;;5080238;28;20193;-83
2022/07/13 09:12:16;;;;;;;0.88;0.88;;;;;;;;;;5080243;28;20219;-83
2022/07/13 09:14:45;;;;;;;0.98;0.98;;;;;;;;;;5090347;28;20275;-84
2022/07/13 09:17:31;;;;;;;1.08;1.08;;;;;;;;;;5099127;28;20228;-83
2022/07/13 09:20:01;;;;;;;0.98;0.98;;;;;;;;;;5100740;28;20196;-85
2022/07/13 09:22:30;;;;;;;1.00;1.00;;;;;;;;;;5100503;28;20219;-84
2022/07/13 09:24:58;;;;;;;1.00;1.00;;;;;;;;;;5100502;28;20235;-84
2022/07/13 09:27:26;;;;;;;1.08;1.08;;;;;;;;;;5098771;28;20302;-83
2022/07/13 09:29:53;;;;;;;1.00;1.00;;;;;;;;;;5099866;28;20287;-84
2022/07/13 09:32:21;;;;;;;1.10;1.10;;;;;;;;;;5093277;28;20204;-82
2022/07/13 09:34:53;;;;;;;1.10;1.10;;;;;;;;;;5085327;28;20197;-83
2022/07/13 09:37:23;;;;;;;0.90;0.90;;;;;;;;;;5081646;28;20229;-82
2022/07/13 09:40:06;;;;;;;0.98;0.98;;;;;;;;;;5100991;28;20208;-84
2022/07/13 09:42:36;;;;;;;1.30;1.30;;;;;;;;;;5100661;28;20200;-85
2022/07/13 09:47:53;;;;;;;1.52;1.42;;;;;;;;;;5083367;28;20617;-83
2022/07/13 09:50:22;;;;;;;1.02;1.02;;;;;;;;;;5081092;28;20193;-83
2022/07/13 09:52:51;;;;;;;1.40;1.40;;;;;;;;;;5076759;28;20618;-82
2022/07/13 09:55:24;;;;;;;5.25;1.73;;;;;;;;;;5078090;28;20334;-83
2022/07/13 09:57:56;;;;;;;1.65;1.23;;;;;;;;;;5078601;28;20220;-82
2022/07/13 10:00:24;;;;;;;1.75;1.65;;;;;;;;;;5077566;28;20204;-83
2022/07/13 10:02:52;;;;;;;1.45;1.35;;;;;;;;;;5077287;28;20704;-82
2022/07/13 10:05:21;;;;;;;0.93;0.93;;;;;;;;;;5078241;28;20239;-83
2022/07/13 10:07:49;;;;;;;1.10;1.10;;;;;;;;;;5078145;28;20535;-83
2022/07/13 10:10:17;;;;;;;1.10;1.05;;;;;;;;;;5077140;28;20201;-82
2022/07/13 10:12:46;;;;;;;1.42;1.40;;;;;;;;;;5076730;28;20286;-82
2022/07/13 10:15:14;;;;;;;1.10;1.10;;;;;;;;;;5078917;28;20688;-83
2022/07/13 10:17:48;;;;;;;1.30;1.20;;;;;;;;;;5082582;28;20251;-83
2022/07/13 10:20:20;;;;;;;1.13;1.10;;;;;;;;;;5097564;28;20200;-82
2022/07/13 10:22:49;;;;;;;1.02;1.02;;;;;;;;;;5091553;28;20193;-83
2022/07/13 10:25:18;;;;;;;1.30;1.20;;;;;;;;;;5077697;28;20390;-84
2022/07/13 10:28:05;;;;;;;1.10;1.10;;;;;;;;;;5077183;28;20639;-83
2022/07/13 10:30:32;;;;;;;1.45;1.35;;;;;;;;;;5077342;28;20322;-82
2022/07/13 10:33:19;;;;;;;1.38;1.33;;;;;;;;;;5076213;28;20239;-83
2022/07/13 10:35:51;;;;;;;1.20;1.20;;;;;;;;;;5078100;28;20243;-83
2022/07/13 10:38:20;;;;;;;1.45;1.35;;;;;;;;;;5077485;28;20260;-82
2022/07/13 10:40:48;;;;;;;1.27;1.27;;;;;;;;;;5078164;28;20645;-83
2022/07/13 10:43:19;;;;;;;1.20;1.20;;;;;;;;;;5077157;28;20554;-83
2022/07/13 10:45:52;;;;;;;1.40;1.40;;;;;;;;;;5077180;28;20221;-83
2022/07/13 10:48:43;;;;;;;1.17;1.17;;;;;;;;;;5078291;28;20235;-83
2022/07/13 10:51:22;;;;;;;1.55;1.45;;;;;;;;;;5077850;28;20654;-82
2022/07/13 10:54:10;;;;;;;1.20;1.20;;;;;;;;;;5076219;28;20229;-83
2022/07/13 10:56:39;;;;;;;1.27;1.25;;;;;;;;;;5078013;28;20224;-83
2022/07/13 10:59:08;;;;;;;2.13;1.25;;;;;;;;;;5077923;28;20595;-83
2022/07/13 11:01:48;;;;;;;1.52;1.42;;;;;;;;;;5076834;28;20228;-84
2022/07/13 11:04:19;;;;;;;2.30;1.38;;;;;;;;;;5077969;28;20703;-83
2022/07/13 11:07:06;;;;;;;0.90;0.90;;;;;;;;;;5077057;28;20217;-83
2022/07/13 11:09:34;;;;;;;1.17;1.17;;;;;;;;;;5077006;28;20201;-83
2022/07/13 11:12:01;;;;;;;1.40;1.30;;;;;;;;;;5076592;28;20234;-83
2022/07/13 11:14:50;;;;;;;1.40;1.40;;;;;;;;;;5085356;28;20639;-83
2022/07/13 11:17:23;;;;;;;1.08;1.08;;;;;;;;;;5094567;28;20224;-83
2022/07/13 11:19:59;;;;;;;1.42;1.30;;;;;;;;;;5076991;28;20185;-83
2022/07/13 11:25:13;;;;;;;1.05;1.05;;;;;;;;;;5076695;28;20210;-83
2022/07/13 11:25:31;;;;;;;1.83;1.73;;;;;;;;;;5077016;28;20587;-83
2022/07/13 11:28:12;;;;;;;2.38;1.30;;;;;;;;;;5076503;28;20587;-84
2022/07/13 11:30:45;;;;;;;1.17;1.17;;;;;;;;;;5076952;28;20212;-83
2022/07/13 11:33:13;;;;;;;1.55;1.45;;;;;;;;;;5076759;28;20713;-83
2022/07/13 11:35:46;;;;;;;1.30;1.20;;;;;;;;;;5075991;28;20262;-84
2022/07/13 11:38:16;;;;;;;1.33;1.33;;;;;;;;;;5075967;28;20205;-83
2022/07/13 11:40:44;;;;;;;1.30;1.27;;;;;;;;;;5076659;28;20208;-82
2022/07/13 11:43:12;;;;;;;1.40;1.33;;;;;;;;;;5076234;28;20197;-82
2022/07/13 11:45:42;;;;;;;1.50;1.40;;;;;;;;;;5095999;28;20224;-83
2022/07/13 11:48:13;;;;;;;1.13;1.13;;;;;;;;;;5088387;28;20197;-83
2022/07/13 11:50:47;;;;;;;1.33;1.23;;;;;;;;;;5079321;28;20189;-84
2022/07/13 11:53:23;;;;;;;1.70;1.60;;;;;;;;;;5081218;28;20192;-82
2022/07/13 11:55:52;;;;;;;1.20;1.20;;;;;;;;;;5081365;28;20259;-84
2022/07/13 11:58:28;;;;;;;1.20;1.10;;;;;;;;;;5084950;28;20219;-82
2022/07/13 12:00:58;;;;;;;1.40;1.40;;;;;;;;;;5100469;28;20629;-83
2022/07/13 12:03:34;;;;;;;1.27;1.27;;;;;;;;;;5098617;28;20261;-84
2022/07/13 12:06:04;;;;;;;1.13;1.13;;;;;;;;;;5101350;28;20633;-84
2022/07/13 12:08:34;;;;;;;1.20;1.20;;;;;;;;;;5101668;28;20272;-83
2022/07/13 12:11:03;;;;;;;1.23;1.23;;;;;;;;;;5101584;28;20200;-84
2022/07/13 12:13:33;;;;;;;2.05;1.17;;;;;;;;;;5101355;28;20204;-83
2022/07/13 12:16:02;;;;;;;0.98;0.98;;;;;;;;;;5081175;28;20216;-83
2022/07/13 12:18:30;;;;;;;1.17;1.17;;;;;;;;;;5080613;28;20236;-83
2022/07/13 12:20:58;;;;;;;1.75;1.10;;;;;;;;;;5080271;28;20235;-83
2022/07/13 12:23:31;;;;;;;0.80;0.80;;;;;;;;;;5079503;28;20727;-83
2022/07/13 12:26:07;;;;;;;4.15;1.27;;;;;;;;;;5079580;28;20229;-83
2022/07/13 12:28:40;;;;;;;1.15;1.15;;;;;;;;;;5080889;28;20202;-83
2022/07/13 12:31:09;;;;;;;1.20;1.20;;;;;;;;;;5083380;28;20207;-83
2022/07/13 12:33:42;;;;;;;1.10;1.10;;;;;;;;;;5080186;28;20221;-83
2022/07/13 12:36:11;;;;;;;1.20;1.20;;;;;;;;;;5081546;28;20315;-83
2022/07/13 12:39:04;;;;;;;1.50;1.40;;;;;;;;;;5080890;28;20221;-82
2022/07/13 12:41:34;;;;;;;0.88;0.88;;;;;;;;;;5079710;28;20204;-83
2022/07/13 12:44:05;;;;;;;1.20;1.10;;;;;;;;;;5084462;28;20204;-82
2022/07/13 12:46:52;;;;;;;4.85;1.65;;;;;;;;;;5101065;28;20267;-82
2022/07/13 12:49:20;;;;;;;1.10;1.10;;;;;;;;;;5084024;28;20223;-83
2022/07/13 12:51:52;;;;;;;1.10;1.10;;;;;;;;;;5078652;28;20242;-83
2022/07/13 12:54:38;;;;;;;1.63;1.35;;;;;;;;;;5080000;28;20204;-83
2022/07/13 12:57:10;;;;;;;1.17;1.08;;;;;;;;;;5079759;28;20220;-83
2022/07/13 12:59:38;;;;;;;0.90;0.90;;;;;;;;;;5079259;28;20209;-83
2022/07/13 13:02:08;;;;;;;1.60;1.50;;;;;;;;;;5077310;28;20224;-83
2022/07/13 13:04:35;;;;;;;0.82;0.82;;;;;;;;;;5078769;28;20197;-83
2022/07/13 13:07:03;;;;;;;1.42;1.33;;;;;;;;;;5079116;28;20221;-84
2022/07/13 13:09:31;;;;;;;1.20;1.10;;;;;;;;;;5078770;28;20205;-84
2022/07/13 13:12:00;;;;;;;1.10;1.10;;;;;;;;;;5089353;28;20696;-84
2022/07/13 13:14:28;;;;;;;1.13;1.02;;;;;;;;;;5090835;28;20709;-84
2022/07/13 13:16:55;;;;;;;1.10;1.08;;;;;;;;;;5079306;28;20259;-84
2022/07/13 13:19:24;;;;;;;1.00;1.00;;;;;;;;;;5077759;28;20224;-83
2022/07/13 13:21:51;;;;;;;1.45;1.23;;;;;;;;;;5078063;28;20200;-83
2022/07/13 13:24:19;;;;;;;1.20;1.20;;;;;;;;;;5078144;28;20201;-83
2022/07/13 13:26:47;;;;;;;1.20;1.20;;;;;;;;;;5078467;28;20320;-84
2022/07/13 13:32:00;;;;;;;1.20;1.20;;;;;;;;;;5077756;28;20208;-83
2022/07/13 13:34:29;;;;;;;1.08;1.08;;;;;;;;;;5077785;28;20601;-83
2022/07/13 13:36:56;;;;;;;0.85;0.85;;;;;;;;;;5078237;28;20247;-83
2022/07/13 13:39:24;;;;;;;1.50;1.40;;;;;;;;;;5077191;28;20244;-83
2022/07/13 13:41:52;;;;;;;1.00;1.00;;;;;;;;;;5076754;28;20259;-83
2022/07/13 13:44:19;;;;;;;1.20;1.20;;;;;;;;;;5084522;28;20273;-85
2022/07/13 13:46:47;;;;;;;1.02;1.02;;;;;;;;;;5096898;28;20593;-84
2022/07/13 13:49:15;;;;;;;1.15;1.15;;;;;;;;;;5097417;28;20200;-84
2022/07/13 13:51:44;;;;;;;1.10;1.10;;;;;;;;;;5096761;28;20196;-83
2022/07/13 13:54:11;;;;;;;1.30;1.23;;;;;;;;;;5096620;28;20227;-84
2022/07/13 13:56:40;;;;;;;1.02;1.02;;;;;;;;;;5097330;28;20220;-82
2022/07/13 13:59:07;;;;;;;1.65;1.15;;;;;;;;;;5098121;28;20306;-83
2022/07/13 14:01:35;;;;;;;1.10;1.10;;;;;;;;;;5099342;28;20200;-83
2022/07/13 14:04:03;;;;;;;1.10;1.10;;;;;;;;;;5097568;28;20621;-83
2022/07/13 14:06:30;;;;;;;1.52;1.42;;;;;;;;;;5097709;28;20223;-83
2022/07/13 14:08:59;;;;;;;1.50;1.40;;;;;;;;;;5097273;28;20239;-84
2022/07/13 14:11:27;;;;;;;1.10;1.10;;;;;;;;;;5090622;28;20193;-83
2022/07/13 14:13:54;;;;;;;1.40;1.30;;;;;;;;;;5079727;28;20714;-82
2022/07/13 14:16:22;;;;;;;1.20;1.20;;;;;;;;;;5096564;28;20220;-82
2022/07/13 14:18:49;;;;;;;1.27;1.27;;;;;;;;;;5080864;28;20209;-82
2022/07/13 14:21:17;;;;;;;1.50;1.40;;;;;;;;;;5076971;28;20264;-83
2022/07/13 14:23:44;;;;;;;1.40;1.30;;;;;;;;;;5076760;28;20227;-82
2022/07/13 14:26:13;;;;;;;1.80;1.60;;;;;;;;;;5076649;28;20223;-83
2022/07/13 14:28:41;;;;;;;1.60;1.50;;;;;;;;;;5077169;28;20205;-83
2022/07/13 14:31:09;;;;;;;1.50;1.40;;;;;;;;;;5075816;28;20229;-83
2022/07/13 14:33:36;;;;;;;3.22;1.45;;;;;;;;;;5075871;28;20589;-83
2022/07/13 14:36:05;;;;;;;1.55;1.45;;;;;;;;;;5075365;28;20590;-83
2022/07/13 14:38:33;;;;;;;1.35;1.25;;;;;;;;;;5076095;28;20212;-83
2022/07/13 14:41:01;;;;;;;1.50;1.42;;;;;;;;;;5076028;28;20291;-83
2022/07/13 14:43:31;;;;;;;1.73;1.63;;;;;;;;;;5077412;28;20207;-83
2022/07/13 14:45:58;;;;;;;1.10;1.08;;;;;;;;;;5097118;28;20235;-83
2022/07/13 14:48:26;;;;;;;1.20;1.10;;;;;;;;;;5084606;28;20301;-83
2022/07/13 14:50:53;;;;;;;1.20;1.20;;;;;;;;;;5075539;28;20205;-83
2022/07/13 14:53:21;;;;;;;2.80;1.40;;;;;;;;;;5075417;28;20288;-83
2022/07/13 14:55:48;;;;;;;1.10;1.10;;;;;;;;;;5076482;28;20249;-84
2022/07/13 14:58:16;;;;;;;1.02;1.02;;;;;;;;;;5075890;28;20631;-83
2022/07/13 15:00:45;;;;;;;1.15;1.10;;;;;;;;;;5075510;28;20221;-82
2022/07/13 15:03:13;;;;;;;1.30;1.20;;;;;;;;;;5074982;28;20239;-82
2022/07/13 15:05:40;;;;;;;1.52;1.10;;;;;;;;;;5074958;28;20283;-83
2022/07/13 15:08:08;;;;;;;1.58;1.48;;;;;;;;;;5074142;28;20212;-83